Time;durP1;ratioP1;P1;durP2;ratioP2;P2;SDS_P1;SDS_P2;PMS_P1;PMS_P2;Temp;Humidity;BMP_temperature;BMP_pressure;BME280_temperature;BME280_humidity;BME280_pressure;Samples;Min_cycle;Max_cycle;Signal;HPM_P1;HPM_P2
2023/08/16 00:00:18;;;;;;;3.30;3.10;;;;;;;18.73;100.00;98848.38;4198420;28;21012;-49
2023/08/16 00:02:20;;;;;;;2.83;2.63;;;;;;;18.72;100.00;98843.97;4186857;28;20701;-48
2023/08/16 00:04:22;;;;;;;23.80;2.63;;;;;;;18.66;100.00;98838.78;4193981;28;20223;-49
2023/08/16 00:06:24;;;;;;;2.92;2.72;;;;;;;18.68;100.00;98839.31;4179930;28;20321;-48
2023/08/16 00:08:25;;;;;;;5.07;2.58;;;;;;;18.57;100.00;98840.56;4183062;28;20204;-47
2023/08/16 00:10:27;;;;;;;2.40;2.30;;;;;;;18.57;100.00;98835.00;4182287;28;20210;-48
2023/08/16 00:12:29;;;;;;;5.38;2.78;;;;;;;18.58;100.00;98834.69;4192549;28;20211;-51
2023/08/16 00:14:31;;;;;;;4.97;2.25;;;;;;;18.57;100.00;98827.50;4176635;28;20274;-50
2023/08/16 00:16:32;;;;;;;2.90;2.70;;;;;;;18.57;100.00;98832.25;4193921;28;20546;-49
2023/08/16 00:18:34;;;;;;;2.10;2.00;;;;;;;18.61;100.00;98831.34;4178513;28;20274;-49
2023/08/16 00:20:36;;;;;;;2.85;2.60;;;;;;;18.65;100.00;98821.31;4197566;28;20329;-49
2023/08/16 00:22:38;;;;;;;2.83;2.63;;;;;;;18.68;100.00;98817.97;4182503;28;20262;-50
2023/08/16 00:24:40;;;;;;;3.20;2.80;;;;;;;18.66;100.00;98828.50;4191584;28;20727;-50
2023/08/16 00:26:41;;;;;;;3.58;3.33;;;;;;;18.65;100.00;98820.50;4167759;28;20607;-49
2023/08/16 00:28:45;;;;;;;3.38;3.03;;;;;;;18.64;100.00;98824.41;4192864;28;20207;-48
2023/08/16 00:30:53;;;;;;;3.17;2.97;;;;;;;18.64;100.00;98807.75;4192785;28;20282;-47
2023/08/16 00:32:55;;;;;;;3.70;3.50;;;;;;;18.71;100.00;98813.78;4185699;28;21048;-47
2023/08/16 00:34:57;;;;;;;3.28;2.92;;;;;;;18.72;100.00;98815.41;4185887;28;20234;-47
2023/08/16 00:36:59;;;;;;;3.47;3.28;;;;;;;18.62;100.00;98804.44;4183923;28;20227;-47
2023/08/16 00:39:00;;;;;;;4.00;3.70;;;;;;;18.57;100.00;98804.50;4189952;28;20210;-47
2023/08/16 00:41:02;;;;;;;3.78;3.22;;;;;;;18.50;100.00;98806.78;4207615;28;20210;-47
2023/08/16 00:43:04;;;;;;;2.70;2.50;;;;;;;18.52;100.00;98804.56;4193330;28;20288;-48
2023/08/16 00:45:06;;;;;;;3.75;3.40;;;;;;;18.50;100.00;98806.78;4193198;28;20214;-47
2023/08/16 00:47:08;;;;;;;3.17;2.95;;;;;;;18.51;100.00;98800.94;4193884;28;20212;-47
2023/08/16 00:49:10;;;;;;;4.68;2.78;;;;;;;18.51;100.00;98808.47;4177174;28;20573;-47
2023/08/16 00:51:11;;;;;;;2.65;2.35;;;;;;;18.49;100.00;98805.97;4176168;28;20204;-48
2023/08/16 00:53:17;;;;;;;3.53;3.28;;;;;;;18.45;100.00;98809.63;4191561;28;20242;-48
2023/08/16 00:55:19;;;;;;;2.60;2.40;;;;;;;18.42;100.00;98807.44;4192854;28;20688;-48
2023/08/16 00:57:20;;;;;;;2.60;2.35;;;;;;;18.43;100.00;98803.53;4192333;28;20204;-47
2023/08/16 00:59:23;;;;;;;2.90;2.70;;;;;;;18.50;100.00;98817.88;4176353;28;20207;-47
2023/08/16 01:01:24;;;;;;;3.03;2.83;;;;;;;18.47;100.00;98818.47;4175753;28;20737;-48
2023/08/16 01:03:26;;;;;;;3.00;2.80;;;;;;;18.50;100.00;98809.56;4193163;28;20330;-47
2023/08/16 01:05:29;;;;;;;2.72;2.55;;;;;;;18.54;100.00;98805.09;4177102;28;20705;-48
2023/08/16 01:07:30;;;;;;;3.28;2.95;;;;;;;18.56;100.00;98805.59;4191954;28;20215;-47
2023/08/16 01:09:32;;;;;;;3.63;2.88;;;;;;;18.47;100.00;98807.38;4193174;28;20234;-48
2023/08/16 01:11:54;;;;;;;2.83;2.63;;;;;;;18.44;100.00;98808.00;4175317;28;20204;-47
2023/08/16 01:14:05;;;;;;;3.28;3.03;;;;;;;18.42;100.00;98808.28;4191484;28;20280;-47
2023/08/16 01:16:07;;;;;;;2.78;2.58;;;;;;;18.42;100.00;98826.84;4191143;28;20207;-48
2023/08/16 01:18:10;;;;;;;2.75;2.55;;;;;;;18.42;100.00;98821.28;4170189;28;20641;-48
2023/08/16 01:20:12;;;;;;;3.47;2.95;;;;;;;18.42;100.00;98824.06;4168764;28;20291;-48
2023/08/16 01:22:26;;;;;;;2.42;2.17;;;;;;;18.42;100.00;98821.28;4209011;28;20230;-47
2023/08/16 01:24:37;;;;;;;2.88;2.60;;;;;;;18.45;100.00;98837.34;4192039;28;20226;-47
2023/08/16 01:26:40;;;;;;;3.25;3.05;;;;;;;18.48;100.00;98831.19;4191200;28;20207;-48
2023/08/16 01:28:43;;;;;;;3.00;2.80;;;;;;;18.48;100.00;98836.75;4177083;28;20204;-48
2023/08/16 01:30:45;;;;;;;3.67;2.80;;;;;;;18.53;100.00;98845.03;4187943;28;20203;-48
2023/08/16 01:32:51;;;;;;;4.40;3.83;;;;;;;18.45;100.00;98848.44;4209472;28;20202;-48
2023/08/16 01:34:52;;;;;;;3.88;3.58;;;;;;;18.54;100.00;98847.50;4176084;28;21220;-48
2023/08/16 01:36:54;;;;;;;3.60;3.30;;;;;;;18.54;100.00;98860.53;4192175;28;20305;-49
2023/08/16 01:38:56;;;;;;;3.63;2.55;;;;;;;18.47;100.00;98852.56;4191427;28;20643;-49
2023/08/16 01:41:02;;;;;;;2.90;2.70;;;;;;;18.45;100.00;98854.78;4194142;28;20215;-48
2023/08/16 01:43:06;;;;;;;2.42;2.22;;;;;;;18.47;100.00;98858.13;4182609;28;20889;-49
2023/08/16 01:45:09;;;;;;;2.85;2.45;;;;;;;18.51;100.00;98853.63;4192186;28;20214;-48
2023/08/16 01:47:12;;;;;;;2.58;2.38;;;;;;;18.36;100.00;98855.72;4190427;28;20242;-48
2023/08/16 01:49:14;;;;;;;3.60;2.45;;;;;;;18.28;100.00;98851.63;4192647;28;20207;-48
2023/08/16 01:51:16;;;;;;;3.03;2.10;;;;;;;18.37;100.00;98846.28;4191422;28;20226;-47
2023/08/16 01:53:18;;;;;;;2.08;1.95;;;;;;;18.30;100.00;98840.22;4175176;28;20261;-48
2023/08/16 01:55:20;;;;;;;1.88;1.75;;;;;;;18.31;100.00;98841.94;4190896;28;20217;-48
2023/08/16 01:57:21;;;;;;;4.20;2.22;;;;;;;18.34;100.00;98841.34;4192164;28;20211;-47
2023/08/16 01:59:24;;;;;;;3.90;2.67;;;;;;;18.24;100.00;98824.78;4192580;28;20597;-47
2023/08/16 02:01:25;;;;;;;3.20;2.60;;;;;;;18.32;100.00;98821.41;4190674;28;20765;-48
2023/08/16 02:03:27;;;;;;;3.50;3.20;;;;;;;18.34;100.00;98813.63;4191468;28;20231;-48
2023/08/16 02:05:29;;;;;;;2.92;2.72;;;;;;;18.21;100.00;98792.09;4184993;28;20639;-48
2023/08/16 02:07:31;;;;;;;4.15;3.00;;;;;;;18.01;100.00;98770.16;4191875;28;20214;-49
2023/08/16 02:09:32;;;;;;;3.70;3.40;;;;;;;17.91;100.00;98767.50;4185738;28;20241;-48
2023/08/16 02:11:34;;;;;;;3.75;2.92;;;;;;;17.95;100.00;98765.78;4191774;28;20261;-48
2023/08/16 02:13:36;;;;;;;4.45;3.35;;;;;;;17.97;100.00;98769.06;4191553;28;20219;-48
2023/08/16 02:15:37;;;;;;;3.58;3.28;;;;;;;18.05;100.00;98771.22;4173393;28;20211;-47
2023/08/16 02:17:39;;;;;;;4.28;3.10;;;;;;;18.10;100.00;98785.84;4192110;28;20211;-48
2023/08/16 02:19:41;;;;;;;3.80;3.50;;;;;;;18.15;100.00;98809.91;4192333;28;20239;-48
2023/08/16 02:21:43;;;;;;;4.53;3.10;;;;;;;18.28;100.00;98811.97;4191886;28;20203;-48
2023/08/16 02:23:44;;;;;;;7.18;3.58;;;;;;;18.19;100.00;98802.66;4191379;28;20322;-47
2023/08/16 02:25:46;;;;;;;3.75;3.17;;;;;;;18.23;100.00;98803.72;4174267;28;20208;-48
2023/08/16 02:27:48;;;;;;;5.32;3.55;;;;;;;18.23;100.00;98806.47;4191448;28;20265;-47
2023/08/16 02:29:51;;;;;;;6.18;3.40;;;;;;;18.26;100.00;98805.91;4191659;28;20722;-48
2023/08/16 02:31:53;;;;;;;4.85;4.45;;;;;;;18.30;100.00;98802.28;4174242;28;20214;-48
2023/08/16 02:33:55;;;;;;;14.13;8.38;;;;;;;18.13;100.00;98807.41;4185524;28;20224;-48
2023/08/16 02:35:57;;;;;;;8.00;5.45;;;;;;;18.20;100.00;98801.53;4192973;28;20241;-48
2023/08/16 02:37:59;;;;;;;10.60;7.50;;;;;;;18.07;100.00;98803.06;4196945;28;20563;-48
2023/08/16 02:40:01;;;;;;;6.20;5.35;;;;;;;18.11;100.00;98803.31;4192294;28;20221;-48
2023/08/16 02:42:03;;;;;;;13.15;9.95;;;;;;;18.02;100.00;98793.94;4192834;28;20207;-47
2023/08/16 02:44:05;;;;;;;9.80;8.07;;;;;;;18.18;100.00;98787.97;4189895;28;20285;-48
2023/08/16 02:46:06;;;;;;;9.88;8.32;;;;;;;18.06;100.00;98789.50;4209919;28;20335;-48
2023/08/16 02:48:08;;;;;;;10.00;8.75;;;;;;;18.11;100.00;98795.00;4194624;28;20302;-47
2023/08/16 02:50:10;;;;;;;11.05;9.38;;;;;;;18.12;100.00;98799.41;4194712;28;20231;-48
2023/08/16 02:52:12;;;;;;;10.57;9.48;;;;;;;18.27;100.00;98800.09;4194019;28;20681;-48
2023/08/16 02:54:14;;;;;;;15.95;9.13;;;;;;;18.25;100.00;98782.91;4210273;28;20348;-48
2023/08/16 02:56:16;;;;;;;10.32;8.45;;;;;;;18.17;100.00;98791.03;4194120;28;20714;-49
2023/08/16 02:58:18;;;;;;;8.60;7.07;;;;;;;18.19;100.00;98788.81;4191776;28;20211;-49
2023/08/16 03:00:19;;;;;;;7.28;6.07;;;;;;;18.23;100.00;98798.16;4184050;28;20445;-49
2023/08/16 03:02:21;;;;;;;22.02;9.23;;;;;;;18.19;100.00;98797.13;4186529;28;20211;-49
2023/08/16 03:04:23;;;;;;;11.65;8.25;;;;;;;18.21;100.00;98794.88;4198340;28;20225;-48
2023/08/16 03:06:25;;;;;;;8.93;8.05;;;;;;;18.22;100.00;98799.28;4194233;28;20227;-48
2023/08/16 03:08:27;;;;;;;23.10;8.02;;;;;;;18.19;100.00;98789.63;4195801;28;20768;-50
2023/08/16 03:10:28;;;;;;;9.90;8.45;;;;;;;18.20;100.00;98796.00;4194806;28;20234;-49
2023/08/16 03:12:30;;;;;;;7.82;6.28;;;;;;;18.19;100.00;98794.34;4195045;28;20607;-50
2023/08/16 03:14:32;;;;;;;10.05;6.70;;;;;;;18.06;100.00;98795.03;4178388;28;20231;-50
2023/08/16 03:16:34;;;;;;;9.23;5.72;;;;;;;17.96;100.00;98781.25;4210965;28;20213;-50
2023/08/16 03:18:36;;;;;;;6.35;5.75;;;;;;;18.01;100.00;98784.00;4194013;28;20200;-50
2023/08/16 03:20:38;;;;;;;16.73;5.20;;;;;;;17.93;100.00;98779.09;4194576;28;20237;-50
2023/08/16 03:22:39;;;;;;;5.18;4.15;;;;;;;17.94;100.00;98791.81;4195015;28;20207;-50
2023/08/16 03:24:41;;;;;;;4.15;3.58;;;;;;;18.00;100.00;98797.03;4194119;28;20227;-49
2023/08/16 03:26:43;;;;;;;3.75;3.45;;;;;;;18.05;100.00;98793.38;4196748;28;20217;-50
2023/08/16 03:28:45;;;;;;;4.18;3.10;;;;;;;18.11;100.00;98792.22;4194185;28;20614;-49
2023/08/16 03:30:46;;;;;;;3.05;2.85;;;;;;;18.05;100.00;98796.97;4193606;28;20265;-50
2023/08/16 03:32:48;;;;;;;2.80;2.60;;;;;;;18.18;100.00;98787.16;4194585;28;20299;-50
2023/08/16 03:34:50;;;;;;;3.92;3.60;;;;;;;18.14;100.00;98791.63;4193842;28;20345;-49
2023/08/16 03:36:52;;;;;;;2.72;2.53;;;;;;;18.15;100.00;98798.81;4193213;28;20269;-50
2023/08/16 03:38:53;;;;;;;3.90;3.53;;;;;;;18.13;100.00;98795.53;4193081;28;20234;-49
2023/08/16 03:40:55;;;;;;;2.60;2.40;;;;;;;18.13;100.00;98798.28;4208723;28;20264;-47
2023/08/16 03:42:57;;;;;;;4.53;3.30;;;;;;;18.12;100.00;98800.22;4192707;28;21094;-48
2023/08/16 03:44:59;;;;;;;3.45;3.15;;;;;;;18.16;100.00;98800.47;4186057;28;20232;-49
2023/08/16 03:47:00;;;;;;;2.65;2.55;;;;;;;18.18;100.00;98799.06;4191793;28;20292;-48
2023/08/16 03:49:03;;;;;;;3.67;2.60;;;;;;;18.20;100.00;98801.53;4194879;28;20215;-48
2023/08/16 03:51:05;;;;;;;3.50;3.15;;;;;;;18.29;100.00;98799.78;4210761;28;20596;-49
2023/08/16 03:53:07;;;;;;;6.07;3.17;;;;;;;18.27;100.00;98797.31;4189219;28;20207;-48
2023/08/16 03:55:12;;;;;;;3.50;3.25;;;;;;;18.23;100.00;98798.16;4193593;28;20207;-48
2023/08/16 03:57:13;;;;;;;10.13;3.65;;;;;;;18.25;100.00;98805.06;4176159;28;20204;-48
2023/08/16 03:59:15;;;;;;;3.70;3.40;;;;;;;18.32;100.00;98813.09;4193303;28;20214;-48
2023/08/16 04:01:17;;;;;;;4.15;3.28;;;;;;;18.35;100.00;98820.81;4192866;28;20219;-48
2023/08/16 04:03:20;;;;;;;4.10;3.75;;;;;;;18.30;100.00;98823.59;4177187;28;20278;-53
2023/08/16 04:05:22;;;;;;;4.82;4.00;;;;;;;18.26;100.00;98822.53;4193813;28;20580;-48
2023/08/16 04:07:23;;;;;;;4.40;4.10;;;;;;;18.26;100.00;98823.34;4190275;28;20246;-48
2023/08/16 04:09:26;;;;;;;4.88;3.60;;;;;;;18.26;100.00;98822.53;4192942;28;20203;-49
2023/08/16 04:11:27;;;;;;;3.90;3.60;;;;;;;18.28;100.00;98823.06;4192935;28;20204;-48
2023/08/16 04:13:29;;;;;;;8.82;3.80;;;;;;;18.30;100.00;98829.13;4192770;28;20223;-48
2023/08/16 04:15:31;;;;;;;3.60;3.30;;;;;;;18.32;100.00;98835.25;4172236;28;20212;-50
2023/08/16 04:17:33;;;;;;;4.20;3.90;;;;;;;18.42;100.00;98837.91;4194130;28;20208;-49
2023/08/16 04:19:34;;;;;;;8.65;4.25;;;;;;;18.20;100.00;98838.41;4191334;28;20689;-49
2023/08/16 04:21:38;;;;;;;9.00;5.32;;;;;;;18.02;100.00;98833.56;4196593;28;20249;-48
2023/08/16 04:23:40;;;;;;;5.45;4.95;;;;;;;18.11;100.00;98808.84;4177996;28;20236;-49
2023/08/16 04:25:41;;;;;;;16.25;6.03;;;;;;;18.08;100.00;98792.78;4193230;28;20221;-48
2023/08/16 04:27:43;;;;;;;5.25;4.22;;;;;;;18.03;100.00;98795.59;4192696;28;20549;-47
2023/08/16 04:29:45;;;;;;;5.05;4.57;;;;;;;18.08;100.00;98814.94;4193493;28;20204;-49
2023/08/16 04:31:49;;;;;;;4.85;4.55;;;;;;;18.19;100.00;98824.81;4188133;28;20211;-47
2023/08/16 04:33:51;;;;;;;4.95;4.43;;;;;;;18.13;100.00;98817.69;4193292;28;20234;-48
2023/08/16 04:35:54;;;;;;;5.05;4.50;;;;;;;18.16;100.00;98804.06;4205975;28;20218;-48
2023/08/16 04:37:55;;;;;;;4.80;4.03;;;;;;;18.15;100.00;98809.91;4177393;28;20212;-47
2023/08/16 04:40:00;;;;;;;5.03;4.63;;;;;;;18.11;100.00;98808.84;4189698;28;20477;-47
2023/08/16 04:42:02;;;;;;;5.80;5.30;;;;;;;18.20;100.00;98807.09;4194520;28;20211;-48
2023/08/16 04:44:05;;;;;;;5.15;4.38;;;;;;;18.18;100.00;98807.38;4194121;28;20243;-46
2023/08/16 04:46:06;;;;;;;4.95;4.55;;;;;;;18.21;100.00;98808.72;4192050;28;20218;-47
2023/08/16 04:48:08;;;;;;;8.95;6.65;;;;;;;18.15;100.00;98807.13;4190962;28;20254;-47
2023/08/16 04:50:10;;;;;;;13.70;7.78;;;;;;;18.04;100.00;98803.63;4176883;28;20658;-47
2023/08/16 04:52:12;;;;;;;16.05;7.13;;;;;;;18.11;100.00;98792.22;4193236;28;20207;-47
2023/08/16 04:54:14;;;;;;;14.77;6.07;;;;;;;17.97;100.00;98796.75;4188073;28;20277;-47
2023/08/16 04:56:15;;;;;;;8.15;7.45;;;;;;;18.07;100.00;98791.13;4191458;28;20264;-47
2023/08/16 04:58:17;;;;;;;7.28;4.43;;;;;;;18.04;100.00;98787.00;4195804;28;20241;-48
2023/08/16 05:00:20;;;;;;;28.00;4.68;;;;;;;17.84;100.00;98794.69;4193389;28;20212;-47
2023/08/16 05:02:21;;;;;;;4.30;3.72;;;;;;;17.95;100.00;98796.22;4182489;28;20321;-47
2023/08/16 05:04:23;;;;;;;3.78;3.47;;;;;;;18.01;100.00;98792.31;4193145;28;20633;-48
2023/08/16 05:06:25;;;;;;;3.58;3.30;;;;;;;18.01;100.00;98792.31;4192832;28;20207;-48
2023/08/16 05:08:27;;;;;;;4.00;3.70;;;;;;;18.15;100.00;98796.03;4192586;28;20203;-47
2023/08/16 05:10:28;;;;;;;3.45;2.70;;;;;;;18.09;100.00;98791.66;4190961;28;20256;-47
2023/08/16 05:12:30;;;;;;;4.60;3.20;;;;;;;18.10;100.00;98791.38;4192929;28;20199;-47
2023/08/16 05:14:32;;;;;;;2.67;2.28;;;;;;;18.13;100.00;98799.09;4192723;28;20219;-48
2023/08/16 05:16:33;;;;;;;2.65;2.45;;;;;;;18.20;100.00;98801.53;4187244;28;20258;-47
2023/08/16 05:18:35;;;;;;;2.67;2.47;;;;;;;18.26;100.00;98812.25;4208668;28;20198;-48
2023/08/16 05:20:37;;;;;;;2.47;2.28;;;;;;;18.26;100.00;98817.81;4193105;28;20680;-47
2023/08/16 05:22:39;;;;;;;2.85;2.65;;;;;;;18.30;100.00;98813.38;4192826;28;20684;-47
2023/08/16 05:24:41;;;;;;;3.58;3.28;;;;;;;18.34;100.00;98808.06;4184070;28;20234;-47
2023/08/16 05:26:42;;;;;;;3.08;2.85;;;;;;;18.41;100.00;98820.47;4176615;28;20682;-47
2023/08/16 05:28:44;;;;;;;6.38;3.70;;;;;;;18.39;100.00;98827.44;4186114;28;20211;-46
2023/08/16 05:30:46;;;;;;;2.58;2.38;;;;;;;18.41;100.00;98830.72;4184835;28;20207;-47
2023/08/16 05:32:48;;;;;;;3.30;3.10;;;;;;;18.42;100.00;98824.06;4180221;28;20254;-47
2023/08/16 05:34:52;;;;;;;3.72;3.53;;;;;;;18.41;100.00;98825.19;4195733;28;20215;-48
2023/08/16 05:36:54;;;;;;;3.50;3.30;;;;;;;18.37;100.00;98837.97;4192377;28;20222;-47
2023/08/16 05:38:56;;;;;;;4.35;4.05;;;;;;;18.39;100.00;98832.97;4183307;28;20612;-48
2023/08/16 05:40:58;;;;;;;5.75;5.25;;;;;;;18.43;100.00;98834.03;4190466;28;20211;-47
2023/08/16 05:43:00;;;;;;;9.80;5.68;;;;;;;18.48;100.00;98831.19;4183201;28;20211;-47
2023/08/16 05:45:02;;;;;;;6.78;6.28;;;;;;;18.46;100.00;98827.91;4189182;28;20284;-47
2023/08/16 05:47:04;;;;;;;4.97;4.57;;;;;;;18.39;100.00;98827.44;4167476;28;20326;-47
2023/08/16 05:49:06;;;;;;;5.95;5.30;;;;;;;18.44;100.00;98830.16;4191954;28;20253;-47
2023/08/16 05:51:08;;;;;;;7.13;6.63;;;;;;;18.42;100.00;98826.84;4191029;28;20590;-47
2023/08/16 05:53:09;;;;;;;7.20;6.70;;;;;;;18.44;100.00;98835.69;4192106;28;20234;-47
2023/08/16 05:55:11;;;;;;;6.78;6.18;;;;;;;18.45;100.00;98831.81;4177830;28;20211;-47
2023/08/16 05:57:13;;;;;;;7.85;7.15;;;;;;;18.45;100.00;98842.88;4191260;28;20222;-48
2023/08/16 05:59:15;;;;;;;7.45;6.90;;;;;;;18.41;100.00;98847.34;4175774;28;20720;-48
2023/08/16 06:01:17;;;;;;;7.20;6.60;;;;;;;18.43;100.00;98842.34;4192094;28;20207;-49
2023/08/16 06:03:19;;;;;;;6.65;6.05;;;;;;;18.49;100.00;98843.94;4185484;28;20232;-48
2023/08/16 06:05:21;;;;;;;6.57;6.07;;;;;;;18.47;100.00;98841.47;4191768;28;20912;-48
2023/08/16 06:07:23;;;;;;;10.07;9.07;;;;;;;18.42;100.00;98849.00;4192400;28;20219;-48
2023/08/16 06:09:25;;;;;;;11.60;10.48;;;;;;;18.36;100.00;98850.16;4192552;28;20215;-48
2023/08/16 06:11:27;;;;;;;10.00;9.10;;;;;;;18.45;100.00;98853.97;4186291;28;20210;-49
2023/08/16 06:13:29;;;;;;;13.85;9.43;;;;;;;18.51;100.00;98852.81;4208853;28;20743;-47
2023/08/16 06:15:31;;;;;;;10.32;8.90;;;;;;;18.45;100.00;98840.13;4191324;28;20302;-47
2023/08/16 06:17:32;;;;;;;9.70;8.70;;;;;;;18.45;100.00;98842.88;4162949;28;20744;-49
2023/08/16 06:19:34;;;;;;;8.45;7.75;;;;;;;18.44;100.00;98858.69;4191249;28;20203;-48
2023/08/16 06:21:36;;;;;;;10.43;9.45;;;;;;;18.46;100.00;98861.97;4190503;28;20268;-48
2023/08/16 06:23:39;;;;;;;8.88;8.02;;;;;;;18.41;100.00;98858.44;4191091;28;20697;-47
2023/08/16 06:25:41;;;;;;;8.30;7.60;;;;;;;18.38;100.00;98850.72;4185344;28;20770;-47
2023/08/16 06:27:43;;;;;;;7.75;7.07;;;;;;;18.51;100.00;98852.81;4207348;28;20248;-47
2023/08/16 06:29:44;;;;;;;14.77;7.65;;;;;;;18.41;100.00;98847.34;4207549;28;20209;-47
2023/08/16 06:31:49;;;;;;;9.40;8.52;;;;;;;18.41;100.00;98853.75;4208428;28;20206;-47
2023/08/16 06:33:51;;;;;;;19.73;7.88;;;;;;;18.38;100.00;98845.19;4184353;28;20238;-47
2023/08/16 06:35:53;;;;;;;9.60;7.03;;;;;;;18.43;100.00;98850.66;4196720;28;20298;-47
2023/08/16 06:37:55;;;;;;;7.82;7.15;;;;;;;18.49;100.00;98843.94;4184905;28;20268;-48
2023/08/16 06:39:57;;;;;;;9.02;8.05;;;;;;;18.56;100.00;98849.97;4173184;28;20266;-47
2023/08/16 06:42:00;;;;;;;7.47;6.88;;;;;;;18.68;100.00;98839.31;4206943;28;20211;-47
2023/08/16 06:44:02;;;;;;;8.25;7.55;;;;;;;18.79;100.00;98840.84;4185147;28;20254;-47
2023/08/16 06:46:04;;;;;;;6.38;5.82;;;;;;;19.15;100.00;98847.59;4192219;28;20207;-47
2023/08/16 06:48:07;;;;;;;5.72;5.32;;;;;;;19.23;100.00;98856.13;4191981;28;20229;-48
2023/08/16 06:50:09;;;;;;;5.75;5.35;;;;;;;19.33;100.00;98857.94;4192014;28;20216;-47
2023/08/16 06:52:11;;;;;;;4.47;4.18;;;;;;;19.39;100.00;98859.53;4208639;28;20817;-49
2023/08/16 06:54:12;;;;;;;5.70;5.30;;;;;;;19.46;100.00;98860.00;4191394;28;20313;-48
2023/08/16 06:56:14;;;;;;;4.07;3.85;;;;;;;19.44;100.00;98867.78;4190979;28;20656;-48
2023/08/16 06:58:16;;;;;;;4.80;4.50;;;;;;;19.53;100.00;98868.78;4190253;28;20207;-48
2023/08/16 07:00:18;;;;;;;4.85;4.43;;;;;;;19.66;100.00;98866.06;4207501;28;20206;-48
2023/08/16 07:02:20;;;;;;;6.07;4.05;;;;;;;19.72;100.00;98864.06;4191584;28;20207;-48
2023/08/16 07:04:23;;;;;;;5.45;5.15;;;;;;;19.74;100.00;98873.75;4191026;28;20357;-48
2023/08/16 07:06:26;;;;;;;5.38;4.97;;;;;;;19.78;100.00;98866.44;4194019;28;20207;-48
2023/08/16 07:08:28;;;;;;;3.47;3.28;;;;;;;19.82;100.00;98863.88;4195236;28;20207;-48
2023/08/16 07:10:29;;;;;;;5.10;4.70;;;;;;;19.65;100.00;98858.84;4190906;28;20812;-48
2023/08/16 07:12:31;;;;;;;6.53;6.07;;;;;;;19.45;100.00;98863.91;4174024;28;20607;-48
2023/08/16 07:14:33;;;;;;;5.88;5.47;;;;;;;19.49;100.00;98881.59;4190527;28;20856;-47
2023/08/16 07:16:36;;;;;;;5.10;4.75;;;;;;;19.45;100.00;98875.00;4175617;28;20721;-47
2023/08/16 07:18:38;;;;;;;4.97;4.57;;;;;;;19.44;100.00;98876.13;4196253;28;20207;-48
2023/08/16 07:20:40;;;;;;;5.85;5.45;;;;;;;19.41;100.00;98880.31;4185906;28;20211;-48
2023/08/16 07:22:41;;;;;;;5.22;4.82;;;;;;;19.46;100.00;98873.88;4193869;28;20206;-47
2023/08/16 07:24:43;;;;;;;5.32;4.82;;;;;;;19.57;100.00;98873.41;4177561;28;20294;-47
2023/08/16 07:26:45;;;;;;;5.28;4.97;;;;;;;19.53;100.00;98882.66;4193958;28;20645;-47
2023/08/16 07:28:46;;;;;;;4.80;4.50;;;;;;;19.65;100.00;98875.53;4193680;28;20316;-48
2023/08/16 07:30:52;;;;;;;5.68;4.90;;;;;;;19.70;100.00;98880.16;4189149;28;20214;-48
2023/08/16 07:32:54;;;;;;;6.90;6.40;;;;;;;19.78;100.00;98876.75;4194681;28;20257;-48
2023/08/16 07:34:55;;;;;;;5.82;5.43;;;;;;;19.89;100.00;98878.22;4194324;28;20231;-48
2023/08/16 07:36:57;;;;;;;6.53;6.03;;;;;;;20.10;100.00;98882.38;4194158;28;20222;-48
2023/08/16 07:38:59;;;;;;;8.77;8.10;;;;;;;20.02;100.00;98885.78;4187210;28;20207;-49
2023/08/16 07:41:01;;;;;;;7.93;7.10;;;;;;;20.09;100.00;98887.09;4194020;28;20242;-48
2023/08/16 07:43:03;;;;;;;8.15;7.47;;;;;;;20.14;100.00;98883.41;4194573;28;20275;-49
2023/08/16 07:45:05;;;;;;;5.60;5.20;;;;;;;20.25;100.00;98884.91;4183859;28;20227;-48
2023/08/16 07:47:07;;;;;;;8.65;7.95;;;;;;;20.41;100.00;98889.06;4209807;28;20864;-47
2023/08/16 07:49:09;;;;;;;10.82;9.93;;;;;;;20.56;100.00;98891.56;4194145;28;20215;-47
2023/08/16 07:51:10;;;;;;;11.93;10.93;;;;;;;20.65;100.00;98904.47;4208938;28;20307;-48
2023/08/16 07:53:12;;;;;;;10.38;9.68;;;;;;;20.63;100.00;98898.41;4193240;28;20782;-48
2023/08/16 07:55:14;;;;;;;11.60;10.43;;;;;;;20.59;100.00;98904.88;4193445;28;20210;-47
2023/08/16 07:57:16;;;;;;;9.63;8.93;;;;;;;20.58;100.00;98900.47;4198702;28;20207;-49
2023/08/16 07:59:18;;;;;;;10.50;9.43;;;;;;;20.37;100.00;98899.16;4198113;28;20257;-47
2023/08/16 08:01:20;;;;;;;11.80;10.55;;;;;;;20.57;100.00;98893.25;4192821;28;20801;-48
2023/08/16 08:03:22;;;;;;;11.60;10.68;;;;;;;20.56;100.00;98891.56;4194166;28;20301;-47
2023/08/16 08:05:24;;;;;;;11.60;10.52;;;;;;;20.72;100.00;98890.19;4186434;28;20231;-47
2023/08/16 08:07:26;;;;;;;14.10;12.88;;;;;;;20.70;100.00;98886.88;4186486;28;20218;-48
2023/08/16 08:09:27;;;;;;;10.88;10.15;;;;;;;20.74;100.00;98899.03;4191869;28;20203;-48
2023/08/16 08:11:29;;;;;;;12.18;11.27;;;;;;;20.57;100.00;98898.81;4192657;28;20732;-47
2023/08/16 08:13:31;;;;;;;11.43;10.43;;;;;;;20.66;100.00;98899.75;4194803;28;20315;-47
2023/08/16 08:15:33;;;;;;;10.18;9.48;;;;;;;20.66;100.00;98899.75;4193757;28;20203;-48
2023/08/16 08:17:34;;;;;;;11.20;10.30;;;;;;;20.72;100.00;98907.69;4176476;28;20219;-47
2023/08/16 08:19:36;;;;;;;9.95;9.10;;;;;;;20.82;100.00;98901.09;4193207;28;20671;-47
2023/08/16 08:21:38;;;;;;;10.98;10.07;;;;;;;21.00;100.00;98903.84;4193474;28;20277;-48
2023/08/16 08:23:40;;;;;;;10.23;9.43;;;;;;;21.06;100.00;98904.56;4195157;28;20231;-47
2023/08/16 08:25:44;;;;;;;13.00;9.02;;;;;;;21.31;100.00;98898.50;4185194;28;20234;-47
2023/08/16 08:27:46;;;;;;;9.95;9.25;;;;;;;21.47;100.00;98891.47;4176641;28;20241;-47
2023/08/16 08:29:48;;;;;;;8.55;7.90;;;;;;;21.63;100.00;98895.59;4188386;28;20548;-47
2023/08/16 08:31:49;;;;;;;8.38;7.78;;;;;;;21.73;100.00;98895.38;4168751;28;20208;-47
2023/08/16 08:33:51;;;;;;;7.38;6.15;;;;;;;21.87;100.00;98901.72;4184886;28;20264;-47
2023/08/16 08:35:53;;;;;;;7.65;7.00;;;;;;;21.68;100.00;98906.63;4195869;28;20240;-48
2023/08/16 08:37:55;;;;;;;7.20;6.60;;;;;;;21.90;100.00;98901.13;4194371;28;20211;-47
2023/08/16 08:39:56;;;;;;;7.53;7.03;;;;;;;22.40;100.00;98888.72;4198361;28;20218;-47
2023/08/16 08:41:58;;;;;;;7.60;7.03;;;;;;;22.37;100.00;98900.53;4192585;28;20202;-47
2023/08/16 08:44:01;;;;;;;6.75;6.25;;;;;;;22.51;100.00;98899.34;4193042;28;20716;-48
2023/08/16 08:46:05;;;;;;;6.40;5.90;;;;;;;22.60;100.00;98900.22;4193355;28;20239;-48
2023/08/16 08:48:06;;;;;;;7.22;6.13;;;;;;;22.74;100.00;98905.72;4210042;28;20684;-47
2023/08/16 08:50:08;;;;;;;7.18;5.85;;;;;;;22.72;100.00;98899.66;4192781;28;20651;-47
2023/08/16 08:52:11;;;;;;;5.93;5.43;;;;;;;22.46;100.00;98893.06;4191437;28;20206;-48
2023/08/16 08:54:13;;;;;;;4.82;4.53;;;;;;;22.77;100.00;98894.75;4188379;28;20230;-47
2023/08/16 08:56:17;;;;;;;6.18;5.70;;;;;;;23.08;100.00;98897.53;4191031;28;20290;-47
2023/08/16 08:58:22;;;;;;;5.72;5.32;;;;;;;23.26;100.00;98899.28;4175527;28;20614;-47
2023/08/16 09:00:27;;;;;;;5.50;4.70;;;;;;;23.37;100.00;98897.84;4175972;28;20229;-48
2023/08/16 09:02:30;;;;;;;4.20;3.88;;;;;;;23.61;100.00;98892.63;4192207;28;20207;-48
2023/08/16 09:04:33;;;;;;;5.00;4.53;;;;;;;24.00;100.00;98897.00;4185432;28;20322;-47
2023/08/16 09:06:35;;;;;;;4.50;4.20;;;;;;;23.73;100.00;98897.28;4183713;28;20215;-48
2023/08/16 09:08:37;;;;;;;4.25;3.85;;;;;;;24.23;100.00;98895.72;4186742;28;20215;-48
2023/08/16 09:10:40;;;;;;;3.78;3.47;;;;;;;24.82;100.00;98899.59;4193911;28;20207;-48
2023/08/16 09:12:42;;;;;;;3.90;3.58;;;;;;;25.09;100.00;98896.38;4191886;28;20207;-48
2023/08/16 09:14:43;;;;;;;4.18;3.67;;;;;;;25.01;100.00;98898.06;4190990;28;20637;-47
2023/08/16 09:16:45;;;;;;;6.38;3.55;;;;;;;24.96;100.00;98898.25;4190696;28;20207;-47
2023/08/16 09:18:48;;;;;;;3.75;3.00;;;;;;;24.92;100.00;98891.66;4196136;28;20237;-47
2023/08/16 09:20:52;;;;;;;3.75;3.05;;;;;;;24.48;100.00;98894.88;4192182;28;20202;-47
2023/08/16 09:22:53;;;;;;;4.18;3.72;;;;;;;24.54;100.00;98887.94;4176089;28;20215;-47
2023/08/16 09:24:57;;;;;;;2.75;2.55;;;;;;;24.72;100.00;98889.56;4191235;28;20314;-47
2023/08/16 09:27:00;;;;;;;3.05;2.53;;;;;;;25.36;100.00;98884.75;4192729;28;20214;-48